Time;durP1;ratioP1;P1;durP2;ratioP2;P2;SDS_P1;SDS_P2;PMS_P1;PMS_P2;Temp;Humidity;BMP_temperature;BMP_pressure;BME280_temperature;BME280_humidity;BME280_pressure;Samples;Min_cycle;Max_cycle;Signal;HPM_P1;HPM_P2
2024/04/03 00:00:45;;;;;;;0.70;0.60;;;19.00;1.00;;;;;;2610941;54;20205;-62
2024/04/03 00:03:11;;;;;;;0.70;0.70;;;19.00;1.00;;;;;;2612870;39;20843;-61
2024/04/03 00:05:37;;;;;;;0.70;0.70;;;19.00;1.00;;;;;;2612049;54;20415;-62
2024/04/03 00:08:04;;;;;;;0.70;0.60;;;19.00;1.00;;;;;;2611928;39;20772;-61
2024/04/03 00:10:30;;;;;;;0.70;0.50;;;19.00;1.00;;;;;;2612202;54;20465;-63
2024/04/03 00:12:55;;;;;;;0.70;0.70;;;19.00;1.00;;;;;;2611042;54;21095;-62
2024/04/03 00:15:21;;;;;;;0.70;0.50;;;19.00;1.00;;;;;;2613474;47;20457;-60
2024/04/03 00:17:47;;;;;;;0.67;0.60;;;18.90;1.00;;;;;;2613387;39;20584;-62
2024/04/03 00:20:13;;;;;;;0.70;0.60;;;18.90;1.00;;;;;;2612544;54;20158;-62
2024/04/03 00:22:38;;;;;;;0.70;0.70;;;18.90;1.00;;;;;;2612842;47;20158;-61
2024/04/03 00:25:05;;;;;;;0.60;0.47;;;19.00;1.00;;;;;;2612164;47;20264;-62
2024/04/03 00:27:32;;;;;;;0.70;0.60;;;18.90;1.00;;;;;;2613263;39;20628;-62
2024/04/03 00:29:57;;;;;;;0.63;0.50;;;19.00;1.00;;;;;;2613100;54;20459;-60
2024/04/03 00:32:23;;;;;;;0.70;0.60;;;18.90;1.00;;;;;;2612995;47;20439;-62
2024/04/03 00:34:52;;;;;;;0.70;0.60;;;19.00;1.00;;;;;;2612539;54;20246;-65
2024/04/03 00:37:20;;;;;;;0.70;0.60;;;18.90;1.00;;;;;;2611043;47;20162;-66
2024/04/03 00:39:45;;;;;;;0.70;0.50;;;18.90;1.00;;;;;;2612615;54;20411;-66
2024/04/03 00:42:11;;;;;;;0.70;0.50;;;19.00;1.00;;;;;;2612800;39;20890;-67
2024/04/03 00:44:44;;;;;;;0.70;0.60;;;19.00;1.00;;;;;;2612876;39;20560;-65
2024/04/03 00:47:09;;;;;;;0.70;0.60;;;19.00;1.00;;;;;;2612576;47;20151;-59
2024/04/03 00:49:35;;;;;;;0.70;0.60;;;19.00;1.00;;;;;;2612495;54;20455;-59
2024/04/03 00:52:01;;;;;;;0.70;0.60;;;18.90;1.00;;;;;;2612894;54;20198;-58
2024/04/03 00:54:27;;;;;;;0.70;0.50;;;19.00;1.00;;;;;;2612458;54;20201;-58
2024/04/03 00:56:52;;;;;;;0.70;0.57;;;19.00;1.00;;;;;;2613116;54;20673;-62
2024/04/03 00:59:18;;;;;;;0.70;0.50;;;18.90;1.00;;;;;;2613436;46;20169;-62
2024/04/03 01:01:44;;;;;;;0.70;0.60;;;18.90;1.00;;;;;;2612874;54;20174;-62
2024/04/03 01:04:10;;;;;;;0.70;0.50;;;18.90;1.00;;;;;;2612561;47;20953;-63
2024/04/03 01:06:35;;;;;;;0.70;0.60;;;19.00;1.00;;;;;;2612928;47;20162;-62
2024/04/03 01:09:01;;;;;;;0.70;0.60;;;18.90;1.00;;;;;;2613235;54;20154;-62
2024/04/03 01:11:27;;;;;;;0.70;0.70;;;18.90;1.00;;;;;;2612848;47;20712;-63
2024/04/03 01:13:53;;;;;;;0.70;0.60;;;18.90;1.00;;;;;;2613405;54;20449;-62
2024/04/03 01:16:19;;;;;;;0.70;0.67;;;19.00;1.00;;;;;;2613819;47;20181;-62
2024/04/03 01:18:44;;;;;;;0.70;0.60;;;19.00;1.00;;;;;;2613098;50;20949;-62
2024/04/03 01:21:10;;;;;;;0.67;0.50;;;19.00;1.00;;;;;;2613065;54;20162;-62
2024/04/03 01:23:36;;;;;;;0.70;0.60;;;18.90;1.00;;;;;;2613376;49;20553;-62
2024/04/03 01:26:01;;;;;;;0.70;0.60;;;18.90;1.00;;;;;;2613117;54;20167;-62
2024/04/03 01:28:27;;;;;;;0.70;0.50;;;19.00;1.00;;;;;;2613084;54;20170;-61
2024/04/03 01:30:53;;;;;;;0.70;0.60;;;18.90;1.00;;;;;;2613310;54;20175;-62
2024/04/03 01:33:18;;;;;;;0.60;0.50;;;18.90;1.00;;;;;;2613232;54;20167;-62
2024/04/03 01:35:44;;;;;;;0.70;0.50;;;18.90;1.00;;;;;;2612392;54;20183;-62
2024/04/03 01:38:10;;;;;;;0.70;0.50;;;19.00;1.00;;;;;;2612622;47;20221;-62
2024/04/03 01:40:36;;;;;;;0.70;0.50;;;18.90;1.00;;;;;;2613246;47;20170;-63
2024/04/03 01:43:01;;;;;;;0.70;0.63;;;19.00;1.00;;;;;;2613601;54;20415;-62
2024/04/03 01:45:27;;;;;;;0.70;0.60;;;18.90;1.00;;;;;;2613822;54;20165;-63
2024/04/03 01:47:53;;;;;;;0.60;0.40;;;18.90;1.00;;;;;;2611990;54;20150;-63
2024/04/03 01:50:20;;;;;;;0.70;0.60;;;18.90;1.00;;;;;;2613411;54;20162;-62
2024/04/03 01:52:47;;;;;;;0.60;0.50;;;18.90;1.00;;;;;;2612513;54;20190;-62
2024/04/03 01:55:13;;;;;;;0.70;0.50;;;18.90;1.00;;;;;;2612803;54;20419;-67
2024/04/03 01:57:38;;;;;;;0.70;0.60;;;18.90;1.00;;;;;;2612598;54;20462;-66
2024/04/03 02:00:06;;;;;;;0.67;0.50;;;18.90;1.00;;;;;;2612701;54;20420;-66
2024/04/03 02:02:32;;;;;;;0.70;0.50;;;18.90;1.00;;;;;;2613364;39;20734;-66
2024/04/03 02:04:58;;;;;;;0.70;0.60;;;18.90;1.00;;;;;;2611964;47;20507;-64
2024/04/03 02:07:23;;;;;;;0.70;0.60;;;18.90;1.00;;;;;;2611719;54;20170;-61
2024/04/03 02:09:49;;;;;;;0.70;0.60;;;18.90;1.00;;;;;;2613338;54;20162;-64
2024/04/03 02:12:15;;;;;;;0.70;0.50;;;18.90;1.00;;;;;;2613319;39;20679;-61
2024/04/03 02:14:40;;;;;;;0.60;0.50;;;18.90;1.00;;;;;;2613316;47;20185;-63
2024/04/03 02:17:06;;;;;;;0.70;0.50;;;18.90;1.00;;;;;;2613420;54;20163;-63
2024/04/03 02:19:32;;;;;;;0.70;0.60;;;18.90;1.00;;;;;;2613565;54;20174;-63
2024/04/03 02:21:57;;;;;;;0.63;0.53;;;18.90;1.00;;;;;;2613112;47;20159;-64
2024/04/03 02:24:23;;;;;;;0.70;0.50;;;18.90;1.00;;;;;;2612795;54;20166;-62
2024/04/03 02:26:49;;;;;;;0.70;0.63;;;18.90;1.00;;;;;;2612726;54;20170;-63
2024/04/03 02:29:14;;;;;;;0.70;0.70;;;18.90;1.00;;;;;;2613014;54;20173;-62
2024/04/03 02:31:41;;;;;;;0.60;0.50;;;18.90;1.00;;;;;;2613115;49;20170;-63
2024/04/03 02:34:07;;;;;;;0.70;0.60;;;18.90;1.00;;;;;;2612803;47;20174;-63
2024/04/03 02:36:33;;;;;;;0.60;0.60;;;18.90;1.00;;;;;;2613367;54;21028;-63
2024/04/03 02:38:59;;;;;;;0.70;0.60;;;18.90;1.00;;;;;;2612907;54;20977;-63
2024/04/03 02:41:25;;;;;;;0.70;0.60;;;18.90;1.00;;;;;;2612389;54;20422;-63
2024/04/03 02:43:51;;;;;;;0.70;0.70;;;18.90;1.00;;;;;;2612688;54;20657;-62
2024/04/03 02:46:17;;;;;;;0.70;0.60;;;18.90;1.00;;;;;;2613111;47;20157;-62
2024/04/03 02:48:43;;;;;;;0.70;0.60;;;18.90;1.00;;;;;;2613169;54;20946;-61
2024/04/03 02:51:10;;;;;;;0.70;0.60;;;18.90;1.00;;;;;;2612907;54;20159;-62
2024/04/03 02:53:36;;;;;;;0.70;0.60;;;18.90;1.00;;;;;;2612937;54;20218;-63
2024/04/03 02:56:06;;;;;;;0.70;0.60;;;18.90;1.00;;;;;;2612673;47;20436;-60
2024/04/03 02:58:33;;;;;;;0.70;0.70;;;18.90;1.00;;;;;;2612964;47;20430;-60
2024/04/03 03:01:09;;;;;;;0.70;0.70;;;18.90;1.00;;;;;;2612708;54;20499;-60
2024/04/03 03:03:35;;;;;;;0.70;0.60;;;18.90;1.00;;;;;;2612700;47;20431;-60
2024/04/03 03:06:03;;;;;;;0.70;0.60;;;18.90;1.00;;;;;;2611946;47;20433;-60
2024/04/03 03:08:30;;;;;;;0.70;0.60;;;18.90;1.00;;;;;;2611956;54;20422;-61
2024/04/03 03:10:57;;;;;;;0.70;0.60;;;18.90;1.00;;;;;;2613068;47;20431;-60
2024/04/03 03:13:28;;;;;;;0.70;0.60;;;18.90;1.00;;;;;;2613184;51;20419;-59
2024/04/03 03:16:01;;;;;;;0.70;0.60;;;18.90;1.00;;;;;;2613287;54;20452;-73
2024/04/03 03:18:29;;;;;;;0.70;0.60;;;18.90;1.00;;;;;;2613463;39;20837;-72
2024/04/03 03:20:55;;;;;;;0.70;0.60;;;18.90;1.00;;;;;;2613259;54;20415;-73
2024/04/03 03:23:21;;;;;;;0.70;0.50;;;18.90;1.00;;;;;;2613742;54;20411;-72
2024/04/03 03:25:48;;;;;;;0.70;0.60;;;18.90;1.00;;;;;;2612998;47;20419;-74
2024/04/03 03:28:15;;;;;;;0.70;0.60;;;18.90;1.00;;;;;;2612988;54;20432;-72
2024/04/03 03:30:45;;;;;;;0.70;0.60;;;18.90;1.00;;;;;;2613559;54;20937;-73
2024/04/03 03:33:11;;;;;;;0.70;0.60;;;18.90;1.00;;;;;;2613498;54;20411;-73
2024/04/03 03:35:36;;;;;;;0.70;0.60;;;18.90;1.00;;;;;;2613030;54;20421;-72
2024/04/03 03:38:03;;;;;;;0.70;0.60;;;18.90;1.00;;;;;;2613225;54;20155;-72
2024/04/03 03:40:31;;;;;;;0.70;0.60;;;18.90;1.00;;;;;;2613007;54;20168;-74
2024/04/03 03:42:57;;;;;;;0.70;0.60;;;18.90;1.00;;;;;;2612878;54;20416;-72
2024/04/03 03:45:22;;;;;;;0.70;0.60;;;18.90;1.00;;;;;;2612894;47;21065;-72
2024/04/03 03:47:49;;;;;;;0.70;0.50;;;18.90;1.00;;;;;;2613507;54;20188;-73
2024/04/03 03:52:59;;;;;;;0.70;0.60;;;18.90;1.00;;;;;;2612408;54;20443;-73
2024/04/03 03:55:31;;;;;;;0.70;0.60;;;18.90;1.00;;;;;;2613285;47;20534;-72
2024/04/03 03:57:58;;;;;;;0.70;0.70;;;18.90;1.00;;;;;;2613035;47;20170;-73
2024/04/03 04:00:24;;;;;;;0.80;0.80;;;18.90;1.00;;;;;;2612481;54;20411;-72
2024/04/03 04:02:51;;;;;;;0.70;0.70;;;18.90;1.00;;;;;;2612751;39;20821;-73
2024/04/03 04:05:19;;;;;;;0.70;0.70;;;18.90;1.00;;;;;;2612658;54;20454;-67
2024/04/03 04:07:46;;;;;;;0.70;0.60;;;18.90;1.00;;;;;;2612651;39;20804;-66
2024/04/03 04:10:12;;;;;;;0.70;0.60;;;18.90;1.00;;;;;;2612586;54;20428;-67
2024/04/03 04:12:37;;;;;;;0.70;0.53;;;18.90;1.00;;;;;;2613067;54;20429;-66
2024/04/03 04:15:04;;;;;;;0.70;0.50;;;18.90;1.00;;;;;;2612518;47;20262;-66
2024/04/03 04:17:29;;;;;;;0.70;0.60;;;18.90;1.00;;;;;;2612190;54;20150;-67
2024/04/03 04:19:55;;;;;;;0.70;0.60;;;18.90;1.00;;;;;;2613587;39;20917;-66
2024/04/03 04:22:21;;;;;;;0.70;0.60;;;18.90;1.00;;;;;;2612920;47;20576;-66
2024/04/03 04:24:48;;;;;;;0.70;0.57;;;18.90;1.00;;;;;;2613250;54;20154;-61
2024/04/03 04:27:13;;;;;;;0.60;0.50;;;18.90;1.00;;;;;;2612383;54;20178;-65
2024/04/03 04:29:40;;;;;;;0.70;0.60;;;18.90;1.00;;;;;;2612385;54;20415;-65
2024/04/03 04:32:07;;;;;;;0.70;0.60;;;18.90;1.00;;;;;;2612854;39;20539;-66
2024/04/03 04:34:33;;;;;;;0.70;0.50;;;18.90;1.00;;;;;;2613220;54;20424;-65
2024/04/03 04:36:58;;;;;;;0.70;0.60;;;18.90;1.00;;;;;;2613442;39;20856;-66
2024/04/03 04:39:24;;;;;;;0.60;0.50;;;18.90;1.00;;;;;;2612528;54;20431;-65
2024/04/03 04:41:51;;;;;;;0.70;0.57;;;18.90;1.00;;;;;;2612997;54;20171;-65
2024/04/03 04:44:18;;;;;;;0.70;0.50;;;18.90;1.00;;;;;;2612843;47;20165;-65
2024/04/03 04:46:52;;;;;;;0.70;0.60;;;18.90;1.00;;;;;;2612717;39;20756;-66
2024/04/03 04:49:19;;;;;;;0.70;0.50;;;18.90;1.00;;;;;;2612760;54;20424;-66
2024/04/03 04:51:45;;;;;;;0.70;0.57;;;18.80;1.00;;;;;;2612009;54;20414;-64
2024/04/03 04:54:11;;;;;;;0.70;0.60;;;18.90;1.00;;;;;;2612186;39;20914;-66
2024/04/03 04:56:38;;;;;;;0.70;0.50;;;18.80;1.00;;;;;;2612347;54;20430;-67
2024/04/03 04:59:04;;;;;;;0.60;0.50;;;18.90;1.00;;;;;;2612640;47;20419;-65
2024/04/03 05:01:33;;;;;;;0.70;0.60;;;18.80;1.00;;;;;;2611237;54;20391;-65
2024/04/03 05:04:02;;;;;;;0.60;0.47;;;18.90;1.00;;;;;;2612345;54;20945;-65
2024/04/03 05:06:29;;;;;;;0.70;0.50;;;18.90;1.00;;;;;;2611829;54;20411;-65
2024/04/03 05:08:56;;;;;;;0.67;0.50;;;18.90;1.00;;;;;;2612432;51;21010;-65
2024/04/03 05:11:21;;;;;;;0.60;0.50;;;18.90;1.00;;;;;;2612209;54;20467;-64
2024/04/03 05:13:47;;;;;;;0.60;0.40;;;18.90;1.00;;;;;;2612268;54;20435;-66
2024/04/03 05:16:14;;;;;;;0.60;0.50;;;18.90;1.00;;;;;;2612730;54;20163;-73
2024/04/03 05:18:44;;;;;;;0.63;0.50;;;18.80;1.00;;;;;;2612447;54;20242;-72
2024/04/03 05:21:10;;;;;;;0.70;0.50;;;18.90;1.00;;;;;;2612825;54;20984;-72
2024/04/03 05:23:37;;;;;;;0.70;0.50;;;18.80;1.00;;;;;;2612330;39;20883;-72
2024/04/03 05:26:06;;;;;;;0.70;0.50;;;18.80;1.00;;;;;;2613213;54;20538;-66
2024/04/03 05:28:35;;;;;;;0.67;0.50;;;18.80;1.00;;;;;;2612988;54;20416;-66
2024/04/03 05:31:13;;;;;;;0.67;0.50;;;18.90;1.00;;;;;;2612131;47;20450;-67
2024/04/03 05:33:39;;;;;;;0.70;0.50;;;18.80;1.00;;;;;;2612341;54;20953;-66
2024/04/03 05:36:07;;;;;;;0.70;0.50;;;18.90;1.00;;;;;;2612662;54;20418;-62
2024/04/03 05:38:33;;;;;;;0.60;0.50;;;18.80;1.00;;;;;;2611780;47;20188;-63
2024/04/03 05:40:59;;;;;;;0.70;0.50;;;18.80;1.00;;;;;;2612416;31;20902;-62
2024/04/03 05:43:26;;;;;;;0.70;0.60;;;18.80;1.00;;;;;;2612192;54;20968;-63
2024/04/03 05:45:54;;;;;;;0.70;0.50;;;18.80;1.00;;;;;;2612778;54;21042;-63
2024/04/03 05:48:27;;;;;;;0.70;0.50;;;18.80;1.00;;;;;;2612096;54;20423;-63
2024/04/03 05:51:06;;;;;;;0.70;0.60;;;18.80;1.00;;;;;;2613064;54;20463;-62
2024/04/03 05:53:33;;;;;;;0.63;0.50;;;18.90;1.00;;;;;;2613003;54;20454;-63
2024/04/03 05:56:01;;;;;;;0.60;0.43;;;18.80;1.00;;;;;;2612622;54;21022;-62
2024/04/03 05:58:27;;;;;;;0.70;0.57;;;18.80;1.00;;;;;;2612317;47;20411;-62
2024/04/03 06:00:58;;;;;;;0.70;0.50;;;18.80;1.00;;;;;;2613075;47;20423;-62
2024/04/03 06:03:24;;;;;;;0.70;0.60;;;18.90;1.00;;;;;;2611695;47;20415;-62
2024/04/03 06:05:55;;;;;;;0.70;0.50;;;18.90;1.00;;;;;;2613183;39;20667;-62
2024/04/03 06:08:21;;;;;;;0.70;0.50;;;18.80;1.00;;;;;;2612500;47;20171;-61
2024/04/03 06:10:48;;;;;;;0.70;0.50;;;18.80;1.00;;;;;;2613209;47;20412;-62
2024/04/03 06:13:14;;;;;;;0.70;0.50;;;18.80;1.00;;;;;;2612759;54;20423;-62
2024/04/03 06:15:39;;;;;;;0.60;0.40;;;18.80;1.00;;;;;;2613384;47;20435;-61
2024/04/03 06:18:05;;;;;;;0.70;0.50;;;18.80;1.00;;;;;;2613326;54;20407;-60
2024/04/03 06:20:31;;;;;;;0.67;0.50;;;18.80;1.00;;;;;;2613497;54;20703;-62
2024/04/03 06:22:57;;;;;;;0.70;0.50;;;18.80;1.00;;;;;;2612057;54;20163;-62
2024/04/03 06:25:23;;;;;;;0.70;0.50;;;18.90;1.00;;;;;;2613309;54;20692;-66
2024/04/03 06:27:49;;;;;;;0.70;0.50;;;18.80;1.00;;;;;;2612997;54;20423;-66
2024/04/03 06:30:15;;;;;;;0.70;0.50;;;18.80;1.00;;;;;;2612813;47;20768;-66
2024/04/03 06:32:42;;;;;;;0.70;0.50;;;18.90;1.00;;;;;;2613181;54;20173;-67
2024/04/03 06:35:10;;;;;;;0.70;0.50;;;18.80;1.00;;;;;;2613405;39;20799;-61
2024/04/03 06:37:36;;;;;;;0.70;0.50;;;18.80;1.00;;;;;;2612454;54;20419;-60
2024/04/03 06:40:02;;;;;;;0.60;0.40;;;18.90;1.00;;;;;;2612454;39;21037;-60
2024/04/03 06:42:28;;;;;;;0.70;0.50;;;18.90;1.00;;;;;;2613136;54;20167;-61
2024/04/03 06:44:54;;;;;;;0.70;0.50;;;18.90;1.00;;;;;;2612762;47;20480;-62
2024/04/03 06:47:20;;;;;;;0.70;0.50;;;18.90;1.00;;;;;;2613699;39;20222;-61
2024/04/03 06:49:45;;;;;;;0.60;0.50;;;18.80;1.00;;;;;;2613674;54;20419;-63
2024/04/03 06:52:11;;;;;;;0.60;0.40;;;18.90;1.00;;;;;;2613445;54;20142;-62
2024/04/03 06:54:37;;;;;;;0.70;0.50;;;18.90;1.00;;;;;;2611949;54;20731;-62
2024/04/03 06:57:03;;;;;;;0.60;0.50;;;18.90;1.00;;;;;;2612825;54;20167;-61
2024/04/03 06:59:30;;;;;;;0.60;0.40;;;18.90;1.00;;;;;;2613147;54;21134;-61
2024/04/03 07:01:57;;;;;;;0.60;0.40;;;18.90;1.00;;;;;;2611099;47;20423;-62
2024/04/03 07:04:23;;;;;;;0.70;0.40;;;18.90;1.00;;;;;;2613583;39;20797;-62
2024/04/03 07:06:49;;;;;;;0.60;0.40;;;18.80;1.00;;;;;;2613151;47;20500;-62
2024/04/03 07:09:14;;;;;;;0.60;0.40;;;18.90;1.00;;;;;;2612306;54;20167;-61
2024/04/03 07:11:40;;;;;;;0.70;0.50;;;18.90;1.00;;;;;;2613124;54;20934;-62
2024/04/03 07:14:06;;;;;;;0.60;0.40;;;18.90;1.00;;;;;;2612228;54;20171;-61
2024/04/03 07:16:31;;;;;;;0.60;0.47;;;18.90;1.00;;;;;;2612770;54;20167;-62
2024/04/03 07:18:57;;;;;;;0.60;0.50;;;18.90;1.00;;;;;;2612530;54;20179;-61
2024/04/03 07:21:23;;;;;;;0.60;0.40;;;18.90;1.00;;;;;;2613208;54;20214;-62
2024/04/03 07:23:50;;;;;;;0.60;0.40;;;18.90;1.00;;;;;;2613364;54;20158;-62
2024/04/03 07:26:19;;;;;;;0.60;0.40;;;18.90;1.00;;;;;;2612188;47;20460;-62
2024/04/03 07:28:45;;;;;;;0.60;0.40;;;18.90;1.00;;;;;;2612820;39;20892;-61
2024/04/03 07:31:11;;;;;;;0.60;0.40;;;18.90;1.00;;;;;;2613924;39;21058;-61
2024/04/03 07:33:37;;;;;;;0.60;0.40;;;18.90;1.00;;;;;;2613046;54;20434;-61
2024/04/03 07:36:03;;;;;;;0.60;0.40;;;18.90;1.00;;;;;;2612933;54;20174;-71
2024/04/03 07:38:30;;;;;;;0.60;0.40;;;18.90;1.00;;;;;;2613402;54;20187;-72
2024/04/03 07:40:56;;;;;;;0.63;0.50;;;18.90;1.00;;;;;;2613125;54;20957;-72
2024/04/03 07:43:21;;;;;;;0.70;0.60;;;18.90;1.00;;;;;;2613588;47;20435;-72
2024/04/03 07:45:47;;;;;;;0.70;0.57;;;18.90;1.00;;;;;;2614169;39;20575;-67
2024/04/03 07:48:13;;;;;;;0.70;0.50;;;18.90;1.00;;;;;;2612437;54;20289;-65
2024/04/03 07:50:40;;;;;;;0.60;0.40;;;18.90;1.00;;;;;;2612479;39;20601;-67
2024/04/03 07:53:07;;;;;;;0.60;0.50;;;18.90;1.00;;;;;;2612510;47;20222;-66
2024/04/03 07:55:35;;;;;;;0.70;0.57;;;18.90;1.00;;;;;;2613595;54;20431;-63
2024/04/03 07:58:02;;;;;;;0.60;0.40;;;18.80;1.00;;;;;;2612984;54;20428;-62
2024/04/03 08:00:27;;;;;;;0.60;0.40;;;18.90;1.00;;;;;;2612513;54;20415;-62
2024/04/03 08:02:53;;;;;;;0.60;0.40;;;18.90;1.00;;;;;;2612009;47;20532;-61
2024/04/03 08:05:19;;;;;;;0.60;0.40;;;18.90;1.00;;;;;;2612474;54;20270;-62
2024/04/03 08:07:45;;;;;;;0.60;0.40;;;18.90;1.00;;;;;;2613301;54;20159;-62
2024/04/03 08:10:12;;;;;;;0.63;0.40;;;18.90;1.00;;;;;;2612821;47;20258;-62
2024/04/03 08:12:39;;;;;;;0.60;0.40;;;18.90;1.00;;;;;;2612036;47;20475;-61
2024/04/03 08:15:06;;;;;;;0.60;0.40;;;18.90;1.00;;;;;;2612092;51;20419;-62
2024/04/03 08:17:32;;;;;;;0.60;0.40;;;18.90;1.00;;;;;;2612419;47;20431;-62
2024/04/03 08:19:58;;;;;;;0.60;0.40;;;18.90;1.00;;;;;;2611237;54;20522;-62
2024/04/03 08:22:24;;;;;;;0.70;0.47;;;18.90;1.00;;;;;;2613098;54;20170;-62
2024/04/03 08:24:51;;;;;;;0.60;0.40;;;18.90;1.00;;;;;;2612905;47;20427;-62
2024/04/03 08:27:18;;;;;;;0.60;0.40;;;18.90;1.00;;;;;;2612273;54;20443;-62
2024/04/03 08:29:45;;;;;;;0.60;0.40;;;18.90;1.00;;;;;;2613031;39;20820;-62
2024/04/03 08:32:11;;;;;;;0.60;0.40;;;18.90;1.00;;;;;;2612461;54;20403;-62
2024/04/03 08:34:37;;;;;;;0.60;0.50;;;18.90;1.00;;;;;;2613454;54;20519;-62
2024/04/03 08:37:04;;;;;;;0.60;0.40;;;18.90;1.00;;;;;;2612749;39;20820;-62
2024/04/03 08:39:31;;;;;;;0.60;0.40;;;18.90;1.00;;;;;;2612838;47;20403;-62
2024/04/03 08:41:58;;;;;;;0.60;0.40;;;18.90;1.00;;;;;;2612269;47;20419;-62
2024/04/03 08:44:25;;;;;;;0.70;0.40;;;18.90;1.00;;;;;;2613279;39;20829;-63
2024/04/03 08:46:53;;;;;;;0.60;0.40;;;18.90;1.00;;;;;;2612631;54;20493;-59
2024/04/03 08:49:19;;;;;;;0.60;0.47;;;18.90;1.00;;;;;;2613094;54;20957;-59
2024/04/03 08:52:03;;;;;;;0.60;0.40;;;18.90;1.00;;;;;;2612793;48;20391;-58
2024/04/03 08:54:29;;;;;;;0.67;0.40;;;18.90;1.00;;;;;;2612987;54;20205;-59
2024/04/03 08:56:56;;;;;;;0.60;0.40;;;18.90;1.00;;;;;;2611713;54;20447;-60
2024/04/03 08:59:22;;;;;;;0.60;0.50;;;19.00;1.00;;;;;;2612541;47;20424;-62
2024/04/03 09:01:49;;;;;;;0.60;0.50;;;18.90;1.00;;;;;;2612264;47;20981;-61
2024/04/03 09:04:16;;;;;;;0.60;0.40;;;18.90;1.00;;;;;;2612220;54;20442;-61
2024/04/03 09:06:42;;;;;;;0.70;0.50;;;18.90;1.00;;;;;;2611406;54;20430;-63
2024/04/03 09:09:21;;;;;;;0.60;0.50;;;18.90;1.00;;;;;;2612141;54;20415;-61
2024/04/03 09:11:50;;;;;;;0.70;0.50;;;18.90;1.00;;;;;;2612404;54;20423;-63
2024/04/03 09:14:19;;;;;;;0.60;0.47;;;18.90;1.00;;;;;;2612299;47;20485;-61
2024/04/03 09:16:45;;;;;;;0.60;0.50;;;18.90;1.00;;;;;;2612628;54;20471;-61
2024/04/03 09:19:11;;;;;;;0.70;0.50;;;18.90;1.00;;;;;;2612828;54;21009;-62
2024/04/03 09:21:37;;;;;;;0.60;0.50;;;18.90;1.00;;;;;;2613421;47;20423;-61
2024/04/03 09:24:02;;;;;;;0.70;0.60;;;18.90;1.00;;;;;;2613435;54;20219;-62
2024/04/03 09:26:28;;;;;;;0.60;0.50;;;18.90;1.00;;;;;;2612814;54;20268;-62
2024/04/03 09:29:01;;;;;;;0.60;0.40;;;18.90;1.00;;;;;;2613757;54;20147;-62
2024/04/03 09:31:27;;;;;;;0.60;0.40;;;18.90;1.00;;;;;;2614103;39;20540;-62
2024/04/03 09:33:53;;;;;;;0.60;0.40;;;19.00;1.00;;;;;;2613071;54;20435;-61
2024/04/03 09:36:21;;;;;;;0.70;0.50;;;19.00;1.00;;;;;;2612968;54;20166;-62
2024/04/03 09:38:48;;;;;;;0.60;0.40;;;19.00;1.00;;;;;;2613752;31;20926;-63
2024/04/03 09:41:14;;;;;;;0.60;0.40;;;19.00;1.00;;;;;;2613162;54;20417;-62
2024/04/03 09:43:44;;;;;;;0.60;0.40;;;19.00;1.00;;;;;;2613401;54;20406;-62
2024/04/03 09:46:16;;;;;;;0.60;0.40;;;19.00;1.00;;;;;;2613616;47;20436;-62
2024/04/03 09:48:47;;;;;;;0.60;0.40;;;19.00;1.00;;;;;;2613368;54;20968;-61
2024/04/03 09:51:13;;;;;;;0.60;0.50;;;19.00;1.00;;;;;;2614014;39;20819;-61
2024/04/03 09:53:40;;;;;;;0.60;0.47;;;19.00;1.00;;;;;;2611408;54;21817;-62
2024/04/03 09:56:07;;;;;;;0.60;0.43;;;19.00;1.00;;;;;;2613696;54;20911;-72
2024/04/03 09:58:36;;;;;;;0.70;0.50;;;19.00;1.00;;;;;;2613828;54;20435;-71
2024/04/03 10:01:07;;;;;;;0.60;0.47;;;19.00;1.00;;;;;;2612595;46;20450;-73
2024/04/03 10:03:34;;;;;;;0.60;0.50;;;19.00;1.00;;;;;;2613075;51;20419;-72
2024/04/03 10:06:10;;;;;;;0.60;0.40;;;19.00;1.00;;;;;;2614065;54;20420;-62
2024/04/03 10:08:46;;;;;;;0.60;0.50;;;19.00;1.00;;;;;;2613855;54;20437;-62
2024/04/03 10:11:15;;;;;;;0.60;0.40;;;19.00;1.00;;;;;;2612712;39;20849;-63
2024/04/03 10:13:44;;;;;;;0.70;0.50;;;19.10;1.00;;;;;;2613806;54;20423;-62
2024/04/03 10:16:14;;;;;;;0.60;0.50;;;19.00;1.00;;;;;;2611689;39;20800;-62
2024/04/03 10:18:51;;;;;;;0.70;0.50;;;19.10;1.00;;;;;;2613178;54;20542;-62
2024/04/03 10:21:17;;;;;;;0.60;0.40;;;19.00;1.00;;;;;;2613535;47;20427;-61
2024/04/03 10:23:50;;;;;;;0.60;0.40;;;19.00;1.00;;;;;;2613242;54;20435;-62
2024/04/03 10:26:17;;;;;;;0.60;0.40;;;19.00;1.00;;;;;;2613608;47;20688;-62
2024/04/03 10:28:45;;;;;;;0.60;0.40;;;19.10;1.00;;;;;;2612608;54;20415;-63
2024/04/03 10:31:17;;;;;;;0.60;0.40;;;19.10;1.00;;;;;;2613037;54;20411;-62
2024/04/03 10:33:43;;;;;;;0.60;0.50;;;19.10;1.00;;;;;;2612225;54;20402;-63
2024/04/03 10:36:09;;;;;;;0.60;0.40;;;19.10;1.00;;;;;;2612998;54;20419;-63
2024/04/03 10:38:36;;;;;;;0.60;0.40;;;19.10;1.00;;;;;;2612849;54;20758;-62
2024/04/03 10:41:03;;;;;;;0.60;0.40;;;19.10;1.00;;;;;;2613722;47;20396;-62
2024/04/03 10:43:28;;;;;;;0.60;0.50;;;19.10;1.00;;;;;;2612858;47;20415;-61
2024/04/03 10:45:54;;;;;;;0.60;0.40;;;19.10;1.00;;;;;;2613395;39;21127;-62
2024/04/03 10:48:20;;;;;;;0.60;0.40;;;19.10;1.00;;;;;;2612594;54;20167;-62
2024/04/03 10:50:47;;;;;;;0.60;0.40;;;19.10;1.00;;;;;;2613134;47;20167;-63
2024/04/03 10:53:16;;;;;;;0.60;0.40;;;19.10;1.00;;;;;;2612333;47;20463;-61
2024/04/03 10:55:42;;;;;;;0.60;0.40;;;19.10;1.00;;;;;;2612730;54;20404;-62
2024/04/03 10:58:09;;;;;;;0.60;0.40;;;19.10;1.00;;;;;;2613320;54;20434;-63
2024/04/03 11:00:37;;;;;;;0.60;0.40;;;19.10;1.00;;;;;;2613175;39;20794;-63
2024/04/03 11:03:04;;;;;;;0.60;0.30;;;19.10;1.00;;;;;;2612559;54;20432;-65
2024/04/03 11:05:31;;;;;;;0.60;0.40;;;19.10;1.00;;;;;;2612452;39;20672;-66
2024/04/03 11:07:57;;;;;;;0.60;0.40;;;19.10;1.00;;;;;;2613437;54;20423;-66
2024/04/03 11:10:24;;;;;;;0.60;0.40;;;19.10;1.00;;;;;;2612739;47;20855;-66
2024/04/03 11:12:50;;;;;;;0.60;0.40;;;19.10;1.00;;;;;;2613147;39;20874;-66
2024/04/03 11:15:25;;;;;;;0.60;0.40;;;19.10;1.00;;;;;;2612429;54;20886;-67
2024/04/03 11:17:50;;;;;;;0.60;0.40;;;19.10;1.00;;;;;;2613204;54;20197;-66
2024/04/03 11:20:16;;;;;;;0.60;0.30;;;19.10;1.00;;;;;;2613143;54;20415;-66
2024/04/03 11:22:42;;;;;;;0.60;0.40;;;19.10;1.00;;;;;;2613191;47;20151;-66
2024/04/03 11:25:12;;;;;;;0.60;0.40;;;19.10;1.00;;;;;;2612677;54;20238;-66
2024/04/03 11:27:39;;;;;;;0.60;0.40;;;19.10;1.00;;;;;;2613703;39;20606;-66
2024/04/03 11:30:06;;;;;;;0.60;0.40;;;19.10;1.00;;;;;;2612925;54;20416;-66
2024/04/03 11:32:32;;;;;;;0.60;0.40;;;19.10;1.00;;;;;;2612473;54;20999;-65
2024/04/03 11:34:58;;;;;;;0.60;0.40;;;19.10;1.00;;;;;;2613344;54;20427;-65
2024/04/03 11:37:23;;;;;;;0.60;0.40;;;19.10;1.00;;;;;;2613067;54;21044;-65
2024/04/03 11:39:49;;;;;;;0.60;0.30;;;19.10;1.00;;;;;;2612504;54;20179;-66
2024/04/03 11:42:15;;;;;;;0.60;0.40;;;19.20;1.00;;;;;;2612879;47;20684;-65
2024/04/03 11:44:41;;;;;;;0.60;0.40;;;19.20;1.00;;;;;;2612479;54;20169;-66
2024/04/03 11:47:06;;;;;;;0.60;0.40;;;19.20;1.00;;;;;;2613337;47;20169;-66
2024/04/03 11:49:32;;;;;;;0.60;0.40;;;19.20;1.00;;;;;;2613092;54;20173;-65
2024/04/03 11:51:59;;;;;;;0.60;0.33;;;19.20;1.00;;;;;;2613287;54;20722;-66
2024/04/03 11:54:24;;;;;;;0.60;0.40;;;19.20;1.00;;;;;;2613071;54;20190;-65
2024/04/03 11:56:55;;;;;;;0.60;0.40;;;19.20;1.00;;;;;;2612847;47;20988;-67
2024/04/03 11:59:21;;;;;;;0.60;0.40;;;19.20;1.00;;;;;;2612281;47;20177;-65
2024/04/03 12:01:47;;;;;;;0.60;0.40;;;19.20;1.00;;;;;;2611604;50;20423;-67
2024/04/03 12:04:13;;;;;;;0.60;0.40;;;19.20;1.00;;;;;;2613052;47;20507;-67
2024/04/03 12:06:40;;;;;;;0.60;0.40;;;19.20;1.00;;;;;;2613743;39;20533;-66
2024/04/03 12:09:06;;;;;;;0.60;0.33;;;19.20;1.00;;;;;;2612958;54;20185;-66
2024/04/03 12:11:32;;;;;;;0.60;0.40;;;19.20;1.00;;;;;;2612630;47;20447;-65
2024/04/03 12:13:57;;;;;;;0.60;0.40;;;19.20;1.00;;;;;;2612525;54;20476;-66
2024/04/03 12:16:27;;;;;;;0.60;0.40;;;19.20;1.00;;;;;;2612200;54;20201;-59
2024/04/03 12:19:13;;;;;;;0.60;0.40;;;19.20;1.00;;;;;;2612346;54;20181;-60
2024/04/03 12:21:43;;;;;;;0.60;0.30;;;19.20;1.00;;;;;;2612785;47;20423;-60
2024/04/03 12:24:11;;;;;;;0.60;0.40;;;19.10;1.00;;;;;;2612094;54;21437;-60
2024/04/03 12:26:39;;;;;;;0.60;0.30;;;19.10;1.00;;;;;;2612785;54;20415;-59
2024/04/03 12:29:05;;;;;;;0.60;0.40;;;19.10;1.00;;;;;;2613098;47;20836;-58
2024/04/03 12:31:31;;;;;;;0.60;0.40;;;19.10;1.00;;;;;;2612045;39;20836;-59
2024/04/03 12:33:58;;;;;;;0.60;0.40;;;19.10;1.00;;;;;;2612984;54;21030;-59
2024/04/03 12:36:24;;;;;;;0.60;0.40;;;19.10;1.00;;;;;;2612832;47;20254;-59
2024/04/03 12:38:49;;;;;;;0.60;0.40;;;19.10;1.00;;;;;;2613109;54;20418;-60
2024/04/03 12:41:15;;;;;;;0.60;0.37;;;19.10;1.00;;;;;;2611991;54;20167;-60
2024/04/03 12:43:41;;;;;;;0.60;0.40;;;19.10;1.00;;;;;;2612386;47;20702;-60
2024/04/03 12:46:09;;;;;;;2.90;2.70;;;19.10;1.00;;;;;;2612956;54;20143;-60
2024/04/03 12:48:35;;;;;;;0.60;0.40;;;19.10;1.00;;;;;;2612240;54;21072;-60
2024/04/03 12:51:00;;;;;;;0.60;0.40;;;19.10;1.00;;;;;;2612372;54;20575;-60
2024/04/03 12:53:27;;;;;;;0.60;0.40;;;19.10;1.00;;;;;;2613269;47;20673;-60
2024/04/03 12:55:53;;;;;;;0.60;0.40;;;19.10;1.00;;;;;;2611417;47;20178;-60
2024/04/03 12:58:18;;;;;;;0.60;0.40;;;19.10;1.00;;;;;;2612818;47;20503;-59